sensor_id;sensor_type;location;lat;lon;timestamp;temperature;humidity
44431;DHT22;30135;47.866;-4.222;2022-12-07T00:01:48;4.90;90.40
44431;DHT22;30135;47.866;-4.222;2022-12-07T00:04:17;4.90;90.40
44431;DHT22;30135;47.866;-4.222;2022-12-07T00:06:45;4.90;90.40
44431;DHT22;30135;47.866;-4.222;2022-12-07T00:09:14;4.90;90.40
44431;DHT22;30135;47.866;-4.222;2022-12-07T00:11:48;5.00;90.50
44431;DHT22;30135;47.866;-4.222;2022-12-07T00:14:18;5.00;90.50
44431;DHT22;30135;47.866;-4.222;2022-12-07T00:16:44;5.00;90.50
44431;DHT22;30135;47.866;-4.222;2022-12-07T00:19:12;5.00;90.50
44431;DHT22;30135;47.866;-4.222;2022-12-07T00:21:38;5.00;90.50
44431;DHT22;30135;47.866;-4.222;2022-12-07T00:24:06;5.00;90.50
44431;DHT22;30135;47.866;-4.222;2022-12-07T00:26:35;5.00;90.50
44431;DHT22;30135;47.866;-4.222;2022-12-07T00:29:09;5.00;90.60
44431;DHT22;30135;47.866;-4.222;2022-12-07T00:31:38;5.00;90.60
44431;DHT22;30135;47.866;-4.222;2022-12-07T00:34:12;5.00;90.60
44431;DHT22;30135;47.866;-4.222;2022-12-07T00:36:48;5.00;90.60
44431;DHT22;30135;47.866;-4.222;2022-12-07T00:39:14;5.00;90.60
44431;DHT22;30135;47.866;-4.222;2022-12-07T00:41:40;5.00;90.60
44431;DHT22;30135;47.866;-4.222;2022-12-07T00:44:07;5.00;90.70
44431;DHT22;30135;47.866;-4.222;2022-12-07T00:46:33;5.00;90.70
44431;DHT22;30135;47.866;-4.222;2022-12-07T00:48:59;5.00;90.70
44431;DHT22;30135;47.866;-4.222;2022-12-07T00:51:26;5.00;90.70
44431;DHT22;30135;47.866;-4.222;2022-12-07T00:53:52;5.00;90.70
44431;DHT22;30135;47.866;-4.222;2022-12-07T00:56:21;5.00;90.70
44431;DHT22;30135;47.866;-4.222;2022-12-07T00:58:57;5.00;90.70
44431;DHT22;30135;47.866;-4.222;2022-12-07T01:01:30;5.00;90.70
44431;DHT22;30135;47.866;-4.222;2022-12-07T01:03:58;5.00;90.70
44431;DHT22;30135;47.866;-4.222;2022-12-07T01:06:27;5.00;90.70
44431;DHT22;30135;47.866;-4.222;2022-12-07T01:08:54;5.00;90.70
44431;DHT22;30135;47.866;-4.222;2022-12-07T01:11:22;5.00;90.70
44431;DHT22;30135;47.866;-4.222;2022-12-07T01:13:54;5.00;90.70
44431;DHT22;30135;47.866;-4.222;2022-12-07T01:16:23;5.00;90.60
44431;DHT22;30135;47.866;-4.222;2022-12-07T01:18:52;5.00;90.60
44431;DHT22;30135;47.866;-4.222;2022-12-07T01:21:33;4.90;90.60
44431;DHT22;30135;47.866;-4.222;2022-12-07T01:24:02;4.90;90.60
44431;DHT22;30135;47.866;-4.222;2022-12-07T01:26:29;4.90;90.60
44431;DHT22;30135;47.866;-4.222;2022-12-07T01:28:55;4.90;90.60
44431;DHT22;30135;47.866;-4.222;2022-12-07T01:31:24;4.90;90.60
44431;DHT22;30135;47.866;-4.222;2022-12-07T01:33:53;4.90;90.60
44431;DHT22;30135;47.866;-4.222;2022-12-07T01:36:22;4.80;90.60
44431;DHT22;30135;47.866;-4.222;2022-12-07T01:38:56;4.80;90.60
44431;DHT22;30135;47.866;-4.222;2022-12-07T01:41:31;4.80;90.70
44431;DHT22;30135;47.866;-4.222;2022-12-07T01:44:18;4.80;90.60
44431;DHT22;30135;47.866;-4.222;2022-12-07T01:47:00;4.80;90.60
44431;DHT22;30135;47.866;-4.222;2022-12-07T01:49:37;4.80;90.60
44431;DHT22;30135;47.866;-4.222;2022-12-07T01:52:31;4.70;90.60
44431;DHT22;30135;47.866;-4.222;2022-12-07T01:55:09;4.70;90.60
44431;DHT22;30135;47.866;-4.222;2022-12-07T01:57:41;4.70;90.60
44431;DHT22;30135;47.866;-4.222;2022-12-07T02:00:12;4.70;90.60
44431;DHT22;30135;47.866;-4.222;2022-12-07T02:05:40;4.70;90.60
44431;DHT22;30135;47.866;-4.222;2022-12-07T02:08:17;4.70;90.60
44431;DHT22;30135;47.866;-4.222;2022-12-07T02:10:44;4.70;90.60
44431;DHT22;30135;47.866;-4.222;2022-12-07T02:13:14;4.70;90.60
44431;DHT22;30135;47.866;-4.222;2022-12-07T02:30:08;4.60;90.50
44431;DHT22;30135;47.866;-4.222;2022-12-07T02:33:00;4.50;90.50
44431;DHT22;30135;47.866;-4.222;2022-12-07T02:35:48;4.50;90.50
44431;DHT22;30135;47.866;-4.222;2022-12-07T02:41:01;4.50;90.50
44431;DHT22;30135;47.866;-4.222;2022-12-07T02:43:51;4.50;90.60
44431;DHT22;30135;47.866;-4.222;2022-12-07T02:46:26;4.50;90.60
44431;DHT22;30135;47.866;-4.222;2022-12-07T02:48:54;4.50;90.60
44431;DHT22;30135;47.866;-4.222;2022-12-07T02:51:21;4.40;90.50
44431;DHT22;30135;47.866;-4.222;2022-12-07T02:53:48;4.50;90.50
44431;DHT22;30135;47.866;-4.222;2022-12-07T03:04:52;4.40;90.50
44431;DHT22;30135;47.866;-4.222;2022-12-07T03:10:31;4.40;90.40
44431;DHT22;30135;47.866;-4.222;2022-12-07T03:18:57;4.40;90.50
44431;DHT22;30135;47.866;-4.222;2022-12-07T03:21:36;4.30;90.40
44431;DHT22;30135;47.866;-4.222;2022-12-07T03:24:13;4.30;90.40
44431;DHT22;30135;47.866;-4.222;2022-12-07T03:26:44;4.30;90.40
44431;DHT22;30135;47.866;-4.222;2022-12-07T03:29:27;4.30;90.50
44431;DHT22;30135;47.866;-4.222;2022-12-07T03:32:02;4.30;90.50
44431;DHT22;30135;47.866;-4.222;2022-12-07T03:37:31;4.30;90.50
44431;DHT22;30135;47.866;-4.222;2022-12-07T03:42:59;4.30;90.60
44431;DHT22;30135;47.866;-4.222;2022-12-07T03:45:40;4.30;90.60
44431;DHT22;30135;47.866;-4.222;2022-12-07T03:50:52;4.30;90.60
44431;DHT22;30135;47.866;-4.222;2022-12-07T03:53:42;4.30;90.60
44431;DHT22;30135;47.866;-4.222;2022-12-07T03:56:12;4.30;90.60
44431;DHT22;30135;47.866;-4.222;2022-12-07T03:58:40;4.20;90.60
44431;DHT22;30135;47.866;-4.222;2022-12-07T04:01:06;4.30;90.60
44431;DHT22;30135;47.866;-4.222;2022-12-07T04:03:33;4.30;90.60
44431;DHT22;30135;47.866;-4.222;2022-12-07T04:06:04;4.30;90.60
44431;DHT22;30135;47.866;-4.222;2022-12-07T04:08:30;4.30;90.60
44431;DHT22;30135;47.866;-4.222;2022-12-07T04:10:56;4.30;90.60
44431;DHT22;30135;47.866;-4.222;2022-12-07T04:13:22;4.20;90.60
44431;DHT22;30135;47.866;-4.222;2022-12-07T04:15:48;4.30;90.60
44431;DHT22;30135;47.866;-4.222;2022-12-07T04:18:14;4.30;90.60
44431;DHT22;30135;47.866;-4.222;2022-12-07T04:20:40;4.20;90.60
44431;DHT22;30135;47.866;-4.222;2022-12-07T04:23:06;4.30;90.60
44431;DHT22;30135;47.866;-4.222;2022-12-07T04:25:32;4.30;90.60
44431;DHT22;30135;47.866;-4.222;2022-12-07T04:27:58;4.30;90.60
44431;DHT22;30135;47.866;-4.222;2022-12-07T04:30:25;4.20;90.60
44431;DHT22;30135;47.866;-4.222;2022-12-07T04:32:51;4.20;90.60
44431;DHT22;30135;47.866;-4.222;2022-12-07T04:35:17;4.20;90.60
44431;DHT22;30135;47.866;-4.222;2022-12-07T04:37:43;4.20;90.60
44431;DHT22;30135;47.866;-4.222;2022-12-07T04:40:09;4.20;90.60
44431;DHT22;30135;47.866;-4.222;2022-12-07T04:42:38;4.20;90.60
44431;DHT22;30135;47.866;-4.222;2022-12-07T04:45:07;4.20;90.60
44431;DHT22;30135;47.866;-4.222;2022-12-07T04:47:34;4.20;90.60
44431;DHT22;30135;47.866;-4.222;2022-12-07T04:50:00;4.20;90.60
44431;DHT22;30135;47.866;-4.222;2022-12-07T04:52:25;4.20;90.60
44431;DHT22;30135;47.866;-4.222;2022-12-07T04:54:51;4.20;90.50
44431;DHT22;30135;47.866;-4.222;2022-12-07T04:57:17;4.10;90.40
44431;DHT22;30135;47.866;-4.222;2022-12-07T04:59:43;4.10;90.40
44431;DHT22;30135;47.866;-4.222;2022-12-07T05:02:09;4.10;90.40
44431;DHT22;30135;47.866;-4.222;2022-12-07T05:04:35;4.10;90.40
44431;DHT22;30135;47.866;-4.222;2022-12-07T05:07:01;4.10;90.30
44431;DHT22;30135;47.866;-4.222;2022-12-07T05:09:27;4.10;90.30
44431;DHT22;30135;47.866;-4.222;2022-12-07T05:11:53;4.00;90.20
44431;DHT22;30135;47.866;-4.222;2022-12-07T05:14:20;4.00;90.20
44431;DHT22;30135;47.866;-4.222;2022-12-07T05:16:49;4.00;90.20
44431;DHT22;30135;47.866;-4.222;2022-12-07T05:19:17;4.00;90.20
44431;DHT22;30135;47.866;-4.222;2022-12-07T05:21:44;3.90;90.20
44431;DHT22;30135;47.866;-4.222;2022-12-07T05:24:12;3.90;90.20
44431;DHT22;30135;47.866;-4.222;2022-12-07T05:26:39;3.90;90.20
44431;DHT22;30135;47.866;-4.222;2022-12-07T05:29:05;3.90;90.30
44431;DHT22;30135;47.866;-4.222;2022-12-07T05:31:32;3.90;90.30
44431;DHT22;30135;47.866;-4.222;2022-12-07T05:33:58;3.90;90.30
44431;DHT22;30135;47.866;-4.222;2022-12-07T05:36:24;3.90;90.40
44431;DHT22;30135;47.866;-4.222;2022-12-07T05:38:50;3.90;90.40
44431;DHT22;30135;47.866;-4.222;2022-12-07T05:41:17;3.90;90.40
44431;DHT22;30135;47.866;-4.222;2022-12-07T05:44:19;3.90;90.40
44431;DHT22;30135;47.866;-4.222;2022-12-07T05:46:45;3.90;90.50
44431;DHT22;30135;47.866;-4.222;2022-12-07T05:49:11;3.90;90.50
44431;DHT22;30135;47.866;-4.222;2022-12-07T05:51:39;3.90;90.50
44431;DHT22;30135;47.866;-4.222;2022-12-07T05:54:05;3.90;90.50
44431;DHT22;30135;47.866;-4.222;2022-12-07T05:56:31;3.90;90.50
44431;DHT22;30135;47.866;-4.222;2022-12-07T05:58:57;3.90;90.50
44431;DHT22;30135;47.866;-4.222;2022-12-07T06:01:42;4.00;90.60
44431;DHT22;30135;47.866;-4.222;2022-12-07T06:04:08;4.00;90.60
44431;DHT22;30135;47.866;-4.222;2022-12-07T06:06:34;4.00;90.60
44431;DHT22;30135;47.866;-4.222;2022-12-07T06:09:00;4.00;90.60
44431;DHT22;30135;47.866;-4.222;2022-12-07T06:11:26;4.00;90.60
44431;DHT22;30135;47.866;-4.222;2022-12-07T06:14:11;4.00;90.50
44431;DHT22;30135;47.866;-4.222;2022-12-07T06:16:37;4.00;90.50
44431;DHT22;30135;47.866;-4.222;2022-12-07T06:19:03;4.00;90.50
44431;DHT22;30135;47.866;-4.222;2022-12-07T06:21:29;4.00;90.50
44431;DHT22;30135;47.866;-4.222;2022-12-07T06:23:55;3.90;90.50
44431;DHT22;30135;47.866;-4.222;2022-12-07T06:26:22;3.90;90.50
44431;DHT22;30135;47.866;-4.222;2022-12-07T06:28:48;4.00;90.50
44431;DHT22;30135;47.866;-4.222;2022-12-07T06:31:14;3.90;90.50
44431;DHT22;30135;47.866;-4.222;2022-12-07T06:33:41;3.90;90.50
44431;DHT22;30135;47.866;-4.222;2022-12-07T06:36:08;3.90;90.50
44431;DHT22;30135;47.866;-4.222;2022-12-07T06:38:35;3.90;90.50
44431;DHT22;30135;47.866;-4.222;2022-12-07T06:41:01;3.90;90.50
44431;DHT22;30135;47.866;-4.222;2022-12-07T06:43:27;3.90;90.50
44431;DHT22;30135;47.866;-4.222;2022-12-07T06:45:53;3.90;90.50
44431;DHT22;30135;47.866;-4.222;2022-12-07T06:48:19;3.90;90.50
44431;DHT22;30135;47.866;-4.222;2022-12-07T06:50:46;3.90;90.50
44431;DHT22;30135;47.866;-4.222;2022-12-07T06:53:12;3.90;90.50
44431;DHT22;30135;47.866;-4.222;2022-12-07T06:55:39;3.90;90.50
44431;DHT22;30135;47.866;-4.222;2022-12-07T06:58:05;3.90;90.50
44431;DHT22;30135;47.866;-4.222;2022-12-07T07:00:33;3.90;90.50
44431;DHT22;30135;47.866;-4.222;2022-12-07T07:03:01;3.90;90.50
44431;DHT22;30135;47.866;-4.222;2022-12-07T07:05:28;3.80;90.50
44431;DHT22;30135;47.866;-4.222;2022-12-07T07:07:55;3.90;90.50
44431;DHT22;30135;47.866;-4.222;2022-12-07T07:10:21;3.90;90.50
44431;DHT22;30135;47.866;-4.222;2022-12-07T07:12:47;3.80;90.40
44431;DHT22;30135;47.866;-4.222;2022-12-07T07:15:13;3.80;90.40
44431;DHT22;30135;47.866;-4.222;2022-12-07T07:17:39;3.80;90.40
44431;DHT22;30135;47.866;-4.222;2022-12-07T07:20:06;3.80;90.40
44431;DHT22;30135;47.866;-4.222;2022-12-07T07:22:32;3.80;90.40
44431;DHT22;30135;47.866;-4.222;2022-12-07T07:24:58;3.80;90.40
44431;DHT22;30135;47.866;-4.222;2022-12-07T07:27:24;3.80;90.40
44431;DHT22;30135;47.866;-4.222;2022-12-07T07:29:50;3.80;90.40
44431;DHT22;30135;47.866;-4.222;2022-12-07T07:32:16;3.80;90.40
44431;DHT22;30135;47.866;-4.222;2022-12-07T07:34:41;3.80;90.50
44431;DHT22;30135;47.866;-4.222;2022-12-07T07:37:07;3.80;90.50
44431;DHT22;30135;47.866;-4.222;2022-12-07T07:39:33;3.80;90.50
44431;DHT22;30135;47.866;-4.222;2022-12-07T07:41:59;3.80;90.50
44431;DHT22;30135;47.866;-4.222;2022-12-07T07:44:28;3.80;90.50
44431;DHT22;30135;47.866;-4.222;2022-12-07T07:46:56;3.80;90.50
44431;DHT22;30135;47.866;-4.222;2022-12-07T07:49:28;3.70;90.40
44431;DHT22;30135;47.866;-4.222;2022-12-07T07:51:54;3.80;90.40
44431;DHT22;30135;47.866;-4.222;2022-12-07T07:54:20;3.80;90.40
44431;DHT22;30135;47.866;-4.222;2022-12-07T07:56:46;3.70;90.40
44431;DHT22;30135;47.866;-4.222;2022-12-07T07:59:12;3.70;90.40
44431;DHT22;30135;47.866;-4.222;2022-12-07T08:01:38;3.70;90.40
44431;DHT22;30135;47.866;-4.222;2022-12-07T08:04:04;3.70;90.40
44431;DHT22;30135;47.866;-4.222;2022-12-07T08:06:30;3.70;90.40
44431;DHT22;30135;47.866;-4.222;2022-12-07T08:08:56;3.70;90.40
44431;DHT22;30135;47.866;-4.222;2022-12-07T08:11:24;3.70;90.40
44431;DHT22;30135;47.866;-4.222;2022-12-07T08:13:50;3.70;90.40
44431;DHT22;30135;47.866;-4.222;2022-12-07T08:16:17;3.70;90.40
44431;DHT22;30135;47.866;-4.222;2022-12-07T08:18:43;3.60;90.40
44431;DHT22;30135;47.866;-4.222;2022-12-07T08:21:12;3.70;90.50
44431;DHT22;30135;47.866;-4.222;2022-12-07T08:23:40;3.60;90.50
44431;DHT22;30135;47.866;-4.222;2022-12-07T08:26:08;3.70;90.50
44431;DHT22;30135;47.866;-4.222;2022-12-07T08:28:36;3.70;90.50
44431;DHT22;30135;47.866;-4.222;2022-12-07T08:31:08;3.70;90.50
44431;DHT22;30135;47.866;-4.222;2022-12-07T08:33:37;3.70;90.50
44431;DHT22;30135;47.866;-4.222;2022-12-07T08:36:11;3.70;90.50
44431;DHT22;30135;47.866;-4.222;2022-12-07T08:38:40;3.70;90.60
44431;DHT22;30135;47.866;-4.222;2022-12-07T08:41:07;3.70;90.60
44431;DHT22;30135;47.866;-4.222;2022-12-07T08:43:34;3.70;90.60
44431;DHT22;30135;47.866;-4.222;2022-12-07T08:46:10;3.70;90.60
44431;DHT22;30135;47.866;-4.222;2022-12-07T08:48:55;3.70;90.60
44431;DHT22;30135;47.866;-4.222;2022-12-07T08:51:35;3.70;91.00
44431;DHT22;30135;47.866;-4.222;2022-12-07T08:54:05;3.70;90.70
44431;DHT22;30135;47.866;-4.222;2022-12-07T08:56:33;3.70;90.70
44431;DHT22;30135;47.866;-4.222;2022-12-07T08:59:00;3.80;90.80
44431;DHT22;30135;47.866;-4.222;2022-12-07T09:01:25;3.80;90.80
44431;DHT22;30135;47.866;-4.222;2022-12-07T09:03:52;3.80;90.80
44431;DHT22;30135;47.866;-4.222;2022-12-07T09:06:19;3.90;90.90
44431;DHT22;30135;47.866;-4.222;2022-12-07T09:08:47;3.90;90.90
44431;DHT22;30135;47.866;-4.222;2022-12-07T09:11:15;3.90;91.30
44431;DHT22;30135;47.866;-4.222;2022-12-07T09:13:41;3.90;90.90
44431;DHT22;30135;47.866;-4.222;2022-12-07T09:16:07;4.00;91.00
44431;DHT22;30135;47.866;-4.222;2022-12-07T09:18:33;4.00;91.00
44431;DHT22;30135;47.866;-4.222;2022-12-07T09:20:59;4.00;91.10
44431;DHT22;30135;47.866;-4.222;2022-12-07T09:23:25;4.00;91.10
44431;DHT22;30135;47.866;-4.222;2022-12-07T09:25:51;4.10;91.20
44431;DHT22;30135;47.866;-4.222;2022-12-07T09:28:21;4.10;91.20
44431;DHT22;30135;47.866;-4.222;2022-12-07T09:30:49;4.10;91.20
44431;DHT22;30135;47.866;-4.222;2022-12-07T09:33:18;4.10;91.30
44431;DHT22;30135;47.866;-4.222;2022-12-07T09:35:48;4.10;91.20
44431;DHT22;30135;47.866;-4.222;2022-12-07T09:38:17;4.20;91.30
44431;DHT22;30135;47.866;-4.222;2022-12-07T09:40:49;4.20;91.40
44431;DHT22;30135;47.866;-4.222;2022-12-07T09:43:35;4.30;91.40
44431;DHT22;30135;47.866;-4.222;2022-12-07T09:46:14;4.30;91.40
44431;DHT22;30135;47.866;-4.222;2022-12-07T09:48:50;4.40;91.50
44431;DHT22;30135;47.866;-4.222;2022-12-07T09:53:47;4.40;91.50
44431;DHT22;30135;47.866;-4.222;2022-12-07T09:56:17;4.50;91.60
44431;DHT22;30135;47.866;-4.222;2022-12-07T09:58:44;4.50;91.60
44431;DHT22;30135;47.866;-4.222;2022-12-07T10:01:20;4.50;91.60
44431;DHT22;30135;47.866;-4.222;2022-12-07T10:03:54;4.60;91.70
44431;DHT22;30135;47.866;-4.222;2022-12-07T10:06:24;4.60;91.70
44431;DHT22;30135;47.866;-4.222;2022-12-07T10:08:50;4.70;91.70
44431;DHT22;30135;47.866;-4.222;2022-12-07T10:11:16;4.70;91.70
44431;DHT22;30135;47.866;-4.222;2022-12-07T10:13:48;4.80;91.80
44431;DHT22;30135;47.866;-4.222;2022-12-07T10:16:42;4.80;92.00
44431;DHT22;30135;47.866;-4.222;2022-12-07T10:19:26;4.90;92.00
44431;DHT22;30135;47.866;-4.222;2022-12-07T10:22:13;5.00;92.00
44431;DHT22;30135;47.866;-4.222;2022-12-07T10:24:42;5.10;92.00
44431;DHT22;30135;47.866;-4.222;2022-12-07T10:27:31;5.10;92.00
44431;DHT22;30135;47.866;-4.222;2022-12-07T10:29:58;5.20;92.00
44431;DHT22;30135;47.866;-4.222;2022-12-07T10:37:49;5.30;92.10
44431;DHT22;30135;47.866;-4.222;2022-12-07T10:40:28;5.40;92.20
44431;DHT22;30135;47.866;-4.222;2022-12-07T10:48:57;5.60;92.20
44431;DHT22;30135;47.866;-4.222;2022-12-07T10:55:05;5.70;92.30
44431;DHT22;30135;47.866;-4.222;2022-12-07T10:57:56;5.70;92.30
44431;DHT22;30135;47.866;-4.222;2022-12-07T11:00:46;5.80;92.30
44431;DHT22;30135;47.866;-4.222;2022-12-07T11:03:36;5.90;92.40
44431;DHT22;30135;47.866;-4.222;2022-12-07T11:06:32;5.90;92.40
44431;DHT22;30135;47.866;-4.222;2022-12-07T11:11:59;6.10;92.50
44431;DHT22;30135;47.866;-4.222;2022-12-07T11:17:24;6.30;92.50
44431;DHT22;30135;47.866;-4.222;2022-12-07T11:20:33;6.30;92.50
44431;DHT22;30135;47.866;-4.222;2022-12-07T11:34:28;6.70;92.40
44431;DHT22;30135;47.866;-4.222;2022-12-07T11:37:32;6.70;92.40
44431;DHT22;30135;47.866;-4.222;2022-12-07T11:40:27;6.80;92.30
44431;DHT22;30135;47.866;-4.222;2022-12-07T11:43:27;6.80;92.30
44431;DHT22;30135;47.866;-4.222;2022-12-07T11:46:09;6.90;92.30
44431;DHT22;30135;47.866;-4.222;2022-12-07T11:48:43;6.90;92.10
44431;DHT22;30135;47.866;-4.222;2022-12-07T11:51:13;7.00;92.10
44431;DHT22;30135;47.866;-4.222;2022-12-07T11:56:21;7.10;91.80
44431;DHT22;30135;47.866;-4.222;2022-12-07T11:59:02;7.20;91.70
44431;DHT22;30135;47.866;-4.222;2022-12-07T12:01:53;7.30;91.90
44431;DHT22;30135;47.866;-4.222;2022-12-07T12:05:13;7.40;91.30
44431;DHT22;30135;47.866;-4.222;2022-12-07T12:07:44;7.50;91.00
44431;DHT22;30135;47.866;-4.222;2022-12-07T12:10:27;7.60;90.80
44431;DHT22;30135;47.866;-4.222;2022-12-07T12:13:19;7.60;90.30
44431;DHT22;30135;47.866;-4.222;2022-12-07T12:22:12;7.80;88.50
44431;DHT22;30135;47.866;-4.222;2022-12-07T12:24:45;7.90;86.80
44431;DHT22;30135;47.866;-4.222;2022-12-07T12:27:42;7.90;87.20
44431;DHT22;30135;47.866;-4.222;2022-12-07T12:30:34;8.00;87.00
44431;DHT22;30135;47.866;-4.222;2022-12-07T12:35:39;8.00;84.60
44431;DHT22;30135;47.866;-4.222;2022-12-07T12:38:36;8.00;86.30
44431;DHT22;30135;47.866;-4.222;2022-12-07T12:44:38;8.10;84.70
44431;DHT22;30135;47.866;-4.222;2022-12-07T12:48:04;8.10;84.80
44431;DHT22;30135;47.866;-4.222;2022-12-07T12:54:23;8.10;84.60
44431;DHT22;30135;47.866;-4.222;2022-12-07T12:57:21;8.10;84.90
44431;DHT22;30135;47.866;-4.222;2022-12-07T13:02:47;8.10;84.20
44431;DHT22;30135;47.866;-4.222;2022-12-07T13:05:23;8.20;83.40
44431;DHT22;30135;47.866;-4.222;2022-12-07T13:07:59;8.20;83.50
44431;DHT22;30135;47.866;-4.222;2022-12-07T13:10:31;8.20;83.50
44431;DHT22;30135;47.866;-4.222;2022-12-07T13:15:46;8.30;83.10
44431;DHT22;30135;47.866;-4.222;2022-12-07T13:20:59;8.30;82.40
44431;DHT22;30135;47.866;-4.222;2022-12-07T13:23:30;8.30;82.50
44431;DHT22;30135;47.866;-4.222;2022-12-07T13:26:15;8.40;82.40
44431;DHT22;30135;47.866;-4.222;2022-12-07T13:29:02;8.40;81.80
44431;DHT22;30135;47.866;-4.222;2022-12-07T13:34:32;8.40;81.90
44431;DHT22;30135;47.866;-4.222;2022-12-07T13:37:24;8.50;81.00
44431;DHT22;30135;47.866;-4.222;2022-12-07T13:39:59;8.50;81.40
44431;DHT22;30135;47.866;-4.222;2022-12-07T13:42:34;8.50;81.30
44431;DHT22;30135;47.866;-4.222;2022-12-07T13:45:23;8.50;81.30
44431;DHT22;30135;47.866;-4.222;2022-12-07T13:48:31;8.50;80.20
44431;DHT22;30135;47.866;-4.222;2022-12-07T13:51:00;8.50;80.10
44431;DHT22;30135;47.866;-4.222;2022-12-07T13:53:28;8.50;80.40
44431;DHT22;30135;47.866;-4.222;2022-12-07T13:56:00;8.50;80.50
44431;DHT22;30135;47.866;-4.222;2022-12-07T13:58:30;8.50;80.00
44431;DHT22;30135;47.866;-4.222;2022-12-07T14:01:00;8.50;80.00
44431;DHT22;30135;47.866;-4.222;2022-12-07T14:03:36;8.50;79.70
44431;DHT22;30135;47.866;-4.222;2022-12-07T14:06:13;8.50;79.70
44431;DHT22;30135;47.866;-4.222;2022-12-07T14:08:42;8.50;79.60
44431;DHT22;30135;47.866;-4.222;2022-12-07T14:11:20;8.60;79.60
44431;DHT22;30135;47.866;-4.222;2022-12-07T14:13:58;8.60;79.70
44431;DHT22;30135;47.866;-4.222;2022-12-07T14:16:27;8.60;79.70
44431;DHT22;30135;47.866;-4.222;2022-12-07T14:18:56;8.60;79.80
44431;DHT22;30135;47.866;-4.222;2022-12-07T14:21:26;8.60;80.00
44431;DHT22;30135;47.866;-4.222;2022-12-07T14:24:11;8.60;79.80
44431;DHT22;30135;47.866;-4.222;2022-12-07T14:26:48;8.60;79.80
44431;DHT22;30135;47.866;-4.222;2022-12-07T14:29:33;8.60;79.80
44431;DHT22;30135;47.866;-4.222;2022-12-07T14:32:22;8.60;79.70
44431;DHT22;30135;47.866;-4.222;2022-12-07T14:35:13;8.60;79.90
44431;DHT22;30135;47.866;-4.222;2022-12-07T14:37:43;8.60;79.70
44431;DHT22;30135;47.866;-4.222;2022-12-07T14:40:29;8.60;79.80
44431;DHT22;30135;47.866;-4.222;2022-12-07T14:42:59;8.70;79.80
44431;DHT22;30135;47.866;-4.222;2022-12-07T14:45:27;8.70;80.00
44431;DHT22;30135;47.866;-4.222;2022-12-07T14:47:53;8.70;80.20
44431;DHT22;30135;47.866;-4.222;2022-12-07T14:50:20;8.70;80.10
44431;DHT22;30135;47.866;-4.222;2022-12-07T14:53:01;8.70;79.90
44431;DHT22;30135;47.866;-4.222;2022-12-07T14:55:33;8.70;80.00
44431;DHT22;30135;47.866;-4.222;2022-12-07T14:57:59;8.70;80.20
44431;DHT22;30135;47.866;-4.222;2022-12-07T15:00:26;8.70;80.30
44431;DHT22;30135;47.866;-4.222;2022-12-07T15:02:54;8.70;80.30
44431;DHT22;30135;47.866;-4.222;2022-12-07T15:05:21;8.70;81.00
44431;DHT22;30135;47.866;-4.222;2022-12-07T15:07:48;8.70;80.30
44431;DHT22;30135;47.866;-4.222;2022-12-07T15:10:22;8.70;80.40
44431;DHT22;30135;47.866;-4.222;2022-12-07T15:12:55;8.60;80.30
44431;DHT22;30135;47.866;-4.222;2022-12-07T15:15:41;8.70;80.70
44431;DHT22;30135;47.866;-4.222;2022-12-07T15:18:07;8.60;80.80
44431;DHT22;30135;47.866;-4.222;2022-12-07T15:20:33;8.60;81.00
44431;DHT22;30135;47.866;-4.222;2022-12-07T15:22:59;8.60;81.10
44431;DHT22;30135;47.866;-4.222;2022-12-07T15:25:26;8.60;81.10
44431;DHT22;30135;47.866;-4.222;2022-12-07T15:27:54;8.60;81.00
44431;DHT22;30135;47.866;-4.222;2022-12-07T15:30:22;8.60;81.00
44431;DHT22;30135;47.866;-4.222;2022-12-07T15:32:50;8.60;81.00
44431;DHT22;30135;47.866;-4.222;2022-12-07T15:35:19;8.60;80.90
44431;DHT22;30135;47.866;-4.222;2022-12-07T15:37:47;8.60;80.80
44431;DHT22;30135;47.866;-4.222;2022-12-07T15:40:15;8.60;80.90
44431;DHT22;30135;47.866;-4.222;2022-12-07T15:42:41;8.50;81.00
44431;DHT22;30135;47.866;-4.222;2022-12-07T15:45:11;8.50;81.10
44431;DHT22;30135;47.866;-4.222;2022-12-07T15:47:44;8.40;80.70
44431;DHT22;30135;47.866;-4.222;2022-12-07T15:50:14;8.40;81.10
44431;DHT22;30135;47.866;-4.222;2022-12-07T15:52:42;8.40;81.30
44431;DHT22;30135;47.866;-4.222;2022-12-07T15:55:10;8.40;81.50
44431;DHT22;30135;47.866;-4.222;2022-12-07T15:57:38;8.40;81.50
44431;DHT22;30135;47.866;-4.222;2022-12-07T16:00:06;8.40;81.50
44431;DHT22;30135;47.866;-4.222;2022-12-07T16:02:36;8.40;81.40
44431;DHT22;30135;47.866;-4.222;2022-12-07T16:05:03;8.40;81.50
44431;DHT22;30135;47.866;-4.222;2022-12-07T16:07:33;8.30;81.50
44431;DHT22;30135;47.866;-4.222;2022-12-07T16:10:02;8.30;81.40
44431;DHT22;30135;47.866;-4.222;2022-12-07T16:12:30;8.30;81.60
44431;DHT22;30135;47.866;-4.222;2022-12-07T16:14:59;8.30;81.60
44431;DHT22;30135;47.866;-4.222;2022-12-07T16:17:27;8.30;81.60
44431;DHT22;30135;47.866;-4.222;2022-12-07T16:19:55;8.20;81.60
44431;DHT22;30135;47.866;-4.222;2022-12-07T16:22:21;8.20;81.60
44431;DHT22;30135;47.866;-4.222;2022-12-07T16:24:48;8.20;81.80
44431;DHT22;30135;47.866;-4.222;2022-12-07T16:27:19;8.20;81.80
44431;DHT22;30135;47.866;-4.222;2022-12-07T16:29:49;8.20;81.90
44431;DHT22;30135;47.866;-4.222;2022-12-07T16:32:20;8.20;82.00
44431;DHT22;30135;47.866;-4.222;2022-12-07T16:34:51;8.10;81.90
44431;DHT22;30135;47.866;-4.222;2022-12-07T16:37:19;8.10;81.90
44431;DHT22;30135;47.866;-4.222;2022-12-07T16:39:47;8.10;81.90
44431;DHT22;30135;47.866;-4.222;2022-12-07T16:42:14;8.00;81.90
44431;DHT22;30135;47.866;-4.222;2022-12-07T16:44:40;8.00;82.00
44431;DHT22;30135;47.866;-4.222;2022-12-07T16:47:07;8.00;82.00
44431;DHT22;30135;47.866;-4.222;2022-12-07T16:49:39;8.00;82.10
44431;DHT22;30135;47.866;-4.222;2022-12-07T16:52:07;7.90;82.10
44431;DHT22;30135;47.866;-4.222;2022-12-07T16:54:35;7.90;82.10
44431;DHT22;30135;47.866;-4.222;2022-12-07T16:57:03;7.90;82.20
44431;DHT22;30135;47.866;-4.222;2022-12-07T16:59:32;7.90;82.30
44431;DHT22;30135;47.866;-4.222;2022-12-07T17:02:00;7.90;82.20
44431;DHT22;30135;47.866;-4.222;2022-12-07T17:04:26;7.80;82.20
44431;DHT22;30135;47.866;-4.222;2022-12-07T17:06:55;7.80;82.20
44431;DHT22;30135;47.866;-4.222;2022-12-07T17:09:22;7.80;82.20
44431;DHT22;30135;47.866;-4.222;2022-12-07T17:11:51;7.70;82.10
44431;DHT22;30135;47.866;-4.222;2022-12-07T17:14:20;7.70;82.30
44431;DHT22;30135;47.866;-4.222;2022-12-07T17:17:23;7.70;82.60
44431;DHT22;30135;47.866;-4.222;2022-12-07T17:19:50;7.70;82.60
44431;DHT22;30135;47.866;-4.222;2022-12-07T17:22:19;7.70;82.60
44431;DHT22;30135;47.866;-4.222;2022-12-07T17:24:47;7.70;82.70
44431;DHT22;30135;47.866;-4.222;2022-12-07T17:27:14;7.70;82.70
44431;DHT22;30135;47.866;-4.222;2022-12-07T17:29:48;7.60;82.80
44431;DHT22;30135;47.866;-4.222;2022-12-07T17:32:18;7.60;83.10
44431;DHT22;30135;47.866;-4.222;2022-12-07T17:34:49;7.60;82.90
44431;DHT22;30135;47.866;-4.222;2022-12-07T17:37:19;7.60;82.90
44431;DHT22;30135;47.866;-4.222;2022-12-07T17:39:49;7.60;83.00
44431;DHT22;30135;47.866;-4.222;2022-12-07T17:42:21;7.60;83.10
44431;DHT22;30135;47.866;-4.222;2022-12-07T17:45:08;7.60;83.10
44431;DHT22;30135;47.866;-4.222;2022-12-07T17:47:45;7.60;83.20
44431;DHT22;30135;47.866;-4.222;2022-12-07T17:50:11;7.60;83.30